createdAt,value
2019-03-09T00:01:06.010Z,4.37
2019-03-09T00:02:14.070Z,4.45
2019-03-09T00:03:22.131Z,4.47
2019-03-09T00:04:30.173Z,4.44
2019-03-09T00:05:38.244Z,4.44
2019-03-09T00:06:46.306Z,4.47
2019-03-09T00:07:54.376Z,4.48
2019-03-09T00:09:02.438Z,4.59
2019-03-09T00:10:10.472Z,4.60
2019-03-09T00:11:18.552Z,4.59
2019-03-09T00:12:26.619Z,4.70
2019-03-09T00:13:34.648Z,4.69
2019-03-09T00:14:42.724Z,4.75
2019-03-09T00:15:50.767Z,4.75
2019-03-09T00:16:58.817Z,4.75
2019-03-09T00:18:06.910Z,4.91
2019-03-09T00:19:14.983Z,4.89
2019-03-09T00:20:23.002Z,4.94
2019-03-09T00:21:31.057Z,4.84
2019-03-09T00:22:39.104Z,4.82
2019-03-09T00:23:47.175Z,4.77
2019-03-09T00:24:55.250Z,4.86
2019-03-09T00:26:03.303Z,4.82
2019-03-09T00:27:11.348Z,4.89
2019-03-09T00:28:19.399Z,4.94
2019-03-09T00:29:27.466Z,4.96
2019-03-09T00:30:35.539Z,4.99
2019-03-09T00:31:43.584Z,4.96
2019-03-09T00:32:51.653Z,4.97
2019-03-09T00:33:59.716Z,5.00
2019-03-09T00:35:07.757Z,5.02
2019-03-09T00:36:15.840Z,5.06
2019-03-09T00:37:23.901Z,5.02
2019-03-09T00:38:31.951Z,5.15
2019-03-09T00:39:39.994Z,5.10
2019-03-09T00:40:48.050Z,5.12
2019-03-09T00:41:56.124Z,5.20
2019-03-09T00:43:04.166Z,5.15
2019-03-09T00:44:12.231Z,5.15
2019-03-09T00:45:20.289Z,5.15
2019-03-09T00:46:28.353Z,5.20
2019-03-09T00:47:36.412Z,5.18
2019-03-09T00:48:44.468Z,5.12
2019-03-09T00:49:52.520Z,5.07
2019-03-09T00:51:00.578Z,5.12
2019-03-09T00:52:08.615Z,5.10
2019-03-09T00:53:16.692Z,5.09
2019-03-09T00:54:24.768Z,5.18
2019-03-09T00:55:32.832Z,5.12
2019-03-09T00:56:40.888Z,5.13
2019-03-09T00:57:48.906Z,5.12
2019-03-09T00:58:56.988Z,5.15
2019-03-09T01:00:05.055Z,5.12
2019-03-09T01:01:13.113Z,5.13
2019-03-09T01:02:21.172Z,5.07
2019-03-09T01:03:29.225Z,5.15
2019-03-09T01:04:37.290Z,5.25
2019-03-09T01:05:45.339Z,5.18
2019-03-09T01:06:53.425Z,5.28
2019-03-09T01:08:01.676Z,5.13
2019-03-09T01:09:09.724Z,5.22
2019-03-09T01:10:17.791Z,5.24
2019-03-09T01:11:25.842Z,5.20
2019-03-09T01:12:33.885Z,5.20
2019-03-09T01:13:41.940Z,5.21
2019-03-09T01:14:50.014Z,5.28
2019-03-09T01:15:58.077Z,5.28
2019-03-09T01:17:06.124Z,5.27
2019-03-09T01:18:14.185Z,5.24
2019-03-09T01:19:22.250Z,5.20
2019-03-09T01:20:30.311Z,5.21
2019-03-09T01:21:38.355Z,5.28
2019-03-09T01:22:46.441Z,5.24
2019-03-09T01:23:54.525Z,5.17
2019-03-09T01:25:02.543Z,5.22
2019-03-09T01:26:10.610Z,5.20
2019-03-09T01:27:18.645Z,5.21
2019-03-09T01:28:26.728Z,5.24
2019-03-09T01:29:34.917Z,5.27
2019-03-09T01:30:42.849Z,5.20
2019-03-09T01:31:50.886Z,5.21
2019-03-09T01:32:58.935Z,5.27
2019-03-09T01:34:07.021Z,5.22
2019-03-09T01:35:15.082Z,5.25
2019-03-09T01:36:23.159Z,5.24
2019-03-09T01:37:31.202Z,5.21
2019-03-09T01:38:39.230Z,5.22
2019-03-09T01:39:47.319Z,5.24
2019-03-09T01:40:55.377Z,5.22
2019-03-09T01:42:03.428Z,5.24
2019-03-09T01:43:11.478Z,5.25
2019-03-09T01:44:19.535Z,5.20
2019-03-09T01:45:27.595Z,5.20
2019-03-09T01:46:35.654Z,5.25
2019-03-09T01:47:43.724Z,5.24
2019-03-09T01:48:54.394Z,5.18
2019-03-09T01:50:02.749Z,5.21
2019-03-09T01:51:10.788Z,5.25
2019-03-09T01:52:18.606Z,5.18
2019-03-09T01:53:26.622Z,5.24
2019-03-09T01:54:34.669Z,5.20
2019-03-09T01:55:42.757Z,5.20
2019-03-09T01:56:50.811Z,5.20
2019-03-09T01:57:58.869Z,5.24
2019-03-09T01:59:07.205Z,5.17
2019-03-09T02:00:15.284Z,5.24
2019-03-09T02:01:25.328Z,5.18
2019-03-09T02:02:31.762Z,5.13
2019-03-09T02:03:39.803Z,5.18
2019-03-09T02:04:47.857Z,5.09
2019-03-09T02:05:55.810Z,5.12
2019-03-09T02:07:03.944Z,5.12
2019-03-09T02:08:11.777Z,5.15
2019-03-09T02:09:19.413Z,5.09
2019-03-09T02:10:27.798Z,5.07
2019-03-09T02:11:35.801Z,5.10
2019-03-09T02:12:43.876Z,5.10
2019-03-09T02:13:51.899Z,5.10
2019-03-09T02:14:59.998Z,5.03
2019-03-09T02:16:07.787Z,5.03
2019-03-09T02:17:15.855Z,5.06
2019-03-09T02:18:24.101Z,4.96
2019-03-09T02:19:32.236Z,4.97
2019-03-09T02:20:40.286Z,4.86
2019-03-09T02:21:48.069Z,4.94
2019-03-09T02:22:56.134Z,4.89
2019-03-09T02:24:04.214Z,4.94
2019-03-09T02:25:12.254Z,4.91
2019-03-09T02:26:20.327Z,4.88
2019-03-09T02:27:28.367Z,4.84
2019-03-09T02:28:36.734Z,4.85
2019-03-09T02:29:44.750Z,4.86
2019-03-09T02:30:52.923Z,4.88
2019-03-09T02:32:00.883Z,4.84
2019-03-09T02:33:09.039Z,4.86
2019-03-09T02:34:17.099Z,4.85
2019-03-09T02:35:25.129Z,4.82
2019-03-09T02:36:33.287Z,4.84
2019-03-09T02:37:41.336Z,4.80
2019-03-09T02:38:49.579Z,4.82
2019-03-09T02:39:57.537Z,4.73
2019-03-09T02:41:05.572Z,4.75
2019-03-09T02:42:13.723Z,4.82
2019-03-09T02:43:21.807Z,4.70
2019-03-09T02:44:29.689Z,4.78
2019-03-09T02:45:37.314Z,4.77
2019-03-09T02:46:45.349Z,4.82
2019-03-09T02:47:53.896Z,4.89
2019-03-09T02:49:02.112Z,4.92
2019-03-09T02:50:10.028Z,5.03
2019-03-09T02:51:17.584Z,5.00
2019-03-09T02:52:25.674Z,5.04
2019-03-09T02:53:33.742Z,5.09
2019-03-09T02:54:41.765Z,5.18
2019-03-09T02:55:49.837Z,5.22
2019-03-09T02:56:57.905Z,5.24
2019-03-09T02:58:05.961Z,5.31
2019-03-09T02:59:14.005Z,5.28
2019-03-09T03:00:22.046Z,5.39
2019-03-09T03:01:30.124Z,5.35
2019-03-09T03:02:38.212Z,5.46
2019-03-09T03:03:46.231Z,5.48
2019-03-09T03:04:54.301Z,5.40
2019-03-09T03:06:02.611Z,5.53
2019-03-09T03:07:10.508Z,5.57
2019-03-09T03:08:18.485Z,5.42
2019-03-09T03:09:26.542Z,5.46
2019-03-09T03:10:35.218Z,5.61
2019-03-09T03:11:42.827Z,5.51
2019-03-09T03:12:50.706Z,5.49
2019-03-09T03:13:58.770Z,5.58
2019-03-09T03:15:06.814Z,5.63
2019-03-09T03:16:14.876Z,5.64
2019-03-09T03:17:22.950Z,5.65
2019-03-09T03:18:30.993Z,5.60
2019-03-09T03:19:39.072Z,5.61
2019-03-09T03:20:47.116Z,5.63
2019-03-09T03:21:55.161Z,5.64
2019-03-09T03:23:03.225Z,5.58
2019-03-09T03:24:11.288Z,5.63
2019-03-09T03:25:19.318Z,5.63
2019-03-09T03:26:27.409Z,5.64
2019-03-09T03:27:35.461Z,5.68
2019-03-09T03:28:43.521Z,5.68
2019-03-09T03:29:51.570Z,5.68
2019-03-09T03:30:59.605Z,5.67
2019-03-09T03:32:07.706Z,5.74
2019-03-09T03:33:15.743Z,5.60
2019-03-09T03:34:23.872Z,5.67
2019-03-09T03:35:31.900Z,5.71
2019-03-09T03:36:39.935Z,5.64
2019-03-09T03:37:47.978Z,5.64
2019-03-09T03:38:56.076Z,5.64
2019-03-09T03:40:04.104Z,5.64
2019-03-09T03:41:12.174Z,5.68
2019-03-09T03:42:20.228Z,5.68
2019-03-09T03:43:28.300Z,5.71
2019-03-09T03:44:36.339Z,5.71
2019-03-09T03:45:44.396Z,5.74
2019-03-09T03:46:52.449Z,5.64
2019-03-09T03:48:00.528Z,5.67
2019-03-09T03:49:08.566Z,5.74
2019-03-09T03:50:16.645Z,5.72
2019-03-09T03:51:24.706Z,5.78
2019-03-09T03:52:32.743Z,5.82
2019-03-09T03:53:40.800Z,5.82
2019-03-09T03:54:48.861Z,5.79
2019-03-09T03:55:56.910Z,5.78
2019-03-09T03:57:05.020Z,5.75
2019-03-09T03:58:13.041Z,5.89
2019-03-09T03:59:21.092Z,5.86
2019-03-09T04:00:29.162Z,5.96
2019-03-09T04:01:37.216Z,5.89
2019-03-09T04:02:45.264Z,5.93
2019-03-09T04:03:53.337Z,5.96
2019-03-09T04:05:01.387Z,5.97
2019-03-09T04:06:09.458Z,5.91
2019-03-09T04:07:17.494Z,6.06
2019-03-09T04:08:25.572Z,6.01
2019-03-09T04:09:33.614Z,5.97
2019-03-09T04:10:41.677Z,5.99
2019-03-09T04:11:49.729Z,6.08
2019-03-09T04:12:57.794Z,6.06
2019-03-09T04:14:05.859Z,6.14
2019-03-09T04:15:13.907Z,6.12
2019-03-09T04:16:21.971Z,6.01
2019-03-09T04:17:30.033Z,6.03
2019-03-09T04:18:38.091Z,6.08
2019-03-09T04:19:46.155Z,6.12
2019-03-09T04:20:54.205Z,6.04
2019-03-09T04:22:02.280Z,6.14
2019-03-09T04:23:10.338Z,6.00
2019-03-09T04:24:18.365Z,6.14
2019-03-09T04:25:26.438Z,6.09
2019-03-09T04:26:34.499Z,6.14
2019-03-09T04:27:42.555Z,6.09
2019-03-09T04:28:50.621Z,6.11
2019-03-09T04:29:58.656Z,6.12
2019-03-09T04:31:06.730Z,6.11
2019-03-09T04:32:14.804Z,6.11
2019-03-09T04:33:22.846Z,6.18
2019-03-09T04:34:30.932Z,6.17
2019-03-09T04:35:38.983Z,6.15
2019-03-09T04:36:47.023Z,6.28
2019-03-09T04:37:55.083Z,6.18
2019-03-09T04:39:03.149Z,6.19
2019-03-09T04:40:11.197Z,6.27
2019-03-09T04:41:19.285Z,6.27
2019-03-09T04:42:27.304Z,6.25
2019-03-09T04:43:35.368Z,6.34
2019-03-09T04:44:43.448Z,6.30
2019-03-09T04:45:51.503Z,6.36
2019-03-09T04:46:59.544Z,6.37
2019-03-09T04:48:07.608Z,6.36
2019-03-09T04:49:15.649Z,6.38
2019-03-09T04:50:23.726Z,6.43
2019-03-09T04:51:31.803Z,6.46
2019-03-09T04:52:39.843Z,6.41
2019-03-09T04:53:47.922Z,6.43
2019-03-09T04:54:55.981Z,6.44
2019-03-09T04:56:04.037Z,6.44
2019-03-09T04:57:12.079Z,6.54
2019-03-09T04:58:20.139Z,6.41
2019-03-09T04:59:28.201Z,6.49
2019-03-09T05:00:36.259Z,6.37
2019-03-09T05:01:44.341Z,6.41
2019-03-09T05:02:52.378Z,6.49
2019-03-09T05:04:00.463Z,6.46
2019-03-09T05:05:08.484Z,6.49
2019-03-09T05:06:16.545Z,6.44
2019-03-09T05:07:24.652Z,6.46
2019-03-09T05:08:32.683Z,6.51
2019-03-09T05:09:40.743Z,6.46
2019-03-09T05:10:48.797Z,6.48
2019-03-09T05:11:56.865Z,6.46
2019-03-09T05:13:04.943Z,6.55
2019-03-09T05:14:12.969Z,6.55
2019-03-09T05:15:21.027Z,6.43
2019-03-09T05:16:29.076Z,6.43
2019-03-09T05:17:37.158Z,6.55
2019-03-09T05:18:45.219Z,6.48
2019-03-09T05:19:53.293Z,6.51
2019-03-09T05:21:01.363Z,6.54
2019-03-09T05:22:09.377Z,6.51
2019-03-09T05:23:17.447Z,6.66
2019-03-09T05:24:25.507Z,6.56
2019-03-09T05:25:33.554Z,6.61
2019-03-09T05:26:41.625Z,6.61
2019-03-09T05:27:49.685Z,6.62
2019-03-09T05:28:57.717Z,6.67
2019-03-09T05:30:05.776Z,6.58
2019-03-09T05:31:13.855Z,6.62
2019-03-09T05:32:21.941Z,6.64
2019-03-09T05:33:29.981Z,6.66
2019-03-09T05:34:38.037Z,6.66
2019-03-09T05:35:46.111Z,6.67
2019-03-09T05:36:54.168Z,6.62
2019-03-09T05:38:02.223Z,6.71
2019-03-09T05:39:10.366Z,6.73
2019-03-09T05:40:18.359Z,6.71
2019-03-09T05:41:26.431Z,6.79
2019-03-09T05:42:34.437Z,6.74
2019-03-09T05:43:42.514Z,6.74
2019-03-09T05:44:51.129Z,6.71
2019-03-09T05:45:58.631Z,6.70
2019-03-09T05:47:06.686Z,6.84
2019-03-09T05:48:14.751Z,6.76
2019-03-09T05:49:22.817Z,6.79
2019-03-09T05:50:31.254Z,6.80
2019-03-09T05:51:38.952Z,6.74
2019-03-09T05:52:46.988Z,6.71
2019-03-09T05:53:55.121Z,6.71
2019-03-09T05:55:03.114Z,6.73
2019-03-09T05:56:11.151Z,6.74
2019-03-09T05:57:19.923Z,6.85
2019-03-09T05:58:27.320Z,6.87
2019-03-09T05:59:35.356Z,6.74
2019-03-09T06:00:43.410Z,6.80
2019-03-09T06:01:53.025Z,6.74
2019-03-09T06:02:59.913Z,6.79
2019-03-09T06:04:07.844Z,6.80
2019-03-09T06:05:15.930Z,6.79
2019-03-09T06:06:23.715Z,6.80
2019-03-09T06:07:31.766Z,6.79
2019-03-09T06:08:39.838Z,6.84
2019-03-09T06:09:47.900Z,6.80
2019-03-09T06:10:55.942Z,6.85
2019-03-09T06:12:04.003Z,6.76
2019-03-09T06:13:12.057Z,6.81
2019-03-09T06:14:20.107Z,6.84
2019-03-09T06:15:28.230Z,6.80
2019-03-09T06:16:36.281Z,6.81
2019-03-09T06:17:44.325Z,6.85
2019-03-09T06:18:52.370Z,6.91
2019-03-09T06:20:00.446Z,6.85
2019-03-09T06:21:08.455Z,6.84
2019-03-09T06:22:16.541Z,6.88
2019-03-09T06:23:24.613Z,6.87
2019-03-09T06:24:32.650Z,6.84
2019-03-09T06:25:40.943Z,6.87
2019-03-09T06:26:48.810Z,6.85
2019-03-09T06:27:56.832Z,6.97
2019-03-09T06:29:04.906Z,6.92
2019-03-09T06:30:12.957Z,6.88
2019-03-09T06:31:21.025Z,6.94
2019-03-09T06:32:29.094Z,6.97
2019-03-09T06:33:37.437Z,6.97
2019-03-09T06:34:45.478Z,6.99
2019-03-09T06:35:53.603Z,6.91
2019-03-09T06:37:01.340Z,6.97
2019-03-09T06:38:09.423Z,6.94
2019-03-09T06:39:17.637Z,6.94
2019-03-09T06:40:25.505Z,6.92
2019-03-09T06:41:33.551Z,6.97
2019-03-09T06:42:41.654Z,6.91
2019-03-09T06:43:49.662Z,6.97
2019-03-09T06:44:57.752Z,6.98
2019-03-09T06:46:06.566Z,6.98
2019-03-09T06:47:13.863Z,6.99
2019-03-09T06:48:21.911Z,7.03
2019-03-09T06:49:30.000Z,7.02
2019-03-09T06:50:38.020Z,6.95
2019-03-09T06:51:46.073Z,7.03
2019-03-09T06:52:54.154Z,6.89
2019-03-09T06:54:02.218Z,6.99
2019-03-09T06:55:10.467Z,6.98
2019-03-09T06:56:18.343Z,7.06
2019-03-09T06:57:26.383Z,7.03
2019-03-09T06:58:34.441Z,7.05
2019-03-09T06:59:42.503Z,7.05
2019-03-09T07:00:50.888Z,7.05
2019-03-09T07:01:58.691Z,7.02
2019-03-09T07:03:06.707Z,7.03
2019-03-09T07:04:14.757Z,7.05
2019-03-09T07:05:22.794Z,7.02
2019-03-09T07:06:31.128Z,7.09
2019-03-09T07:07:39.134Z,7.12
2019-03-09T07:08:46.983Z,7.06
2019-03-09T07:09:55.071Z,7.12
2019-03-09T07:11:03.380Z,7.13
2019-03-09T07:12:11.179Z,7.15
2019-03-09T07:13:19.214Z,7.15
2019-03-09T07:14:27.305Z,7.09
2019-03-09T07:15:35.448Z,7.13
2019-03-09T07:16:43.762Z,7.17
2019-03-09T07:17:51.486Z,7.16
2019-03-09T07:18:59.847Z,7.10
2019-03-09T07:20:12.456Z,7.15
2019-03-09T07:21:15.649Z,7.15
2019-03-09T07:22:24.183Z,7.12
2019-03-09T07:23:32.301Z,7.16
2019-03-09T07:24:39.830Z,7.16
2019-03-09T07:25:48.469Z,7.13
2019-03-09T07:26:56.235Z,7.13
2019-03-09T07:28:04.722Z,7.17
2019-03-09T07:29:12.415Z,7.17
2019-03-09T07:30:20.439Z,7.25
2019-03-09T07:31:28.192Z,7.23
2019-03-09T07:32:36.693Z,7.13
2019-03-09T07:33:44.548Z,7.16
2019-03-09T07:34:52.688Z,7.17
2019-03-09T07:36:00.455Z,7.13
2019-03-09T07:37:09.084Z,7.16
2019-03-09T07:38:16.554Z,7.20
2019-03-09T07:39:24.641Z,7.25
2019-03-09T07:40:32.665Z,7.10
2019-03-09T07:41:40.725Z,7.12
2019-03-09T07:42:48.821Z,7.13
2019-03-09T07:43:56.851Z,7.12
2019-03-09T07:45:04.911Z,7.17
2019-03-09T07:46:13.535Z,7.27
2019-03-09T07:47:21.594Z,7.24
2019-03-09T07:48:29.082Z,7.20
2019-03-09T07:49:37.154Z,7.17
2019-03-09T07:50:45.248Z,7.24
2019-03-09T07:51:53.285Z,7.25
2019-03-09T07:53:01.337Z,7.28
2019-03-09T07:54:09.848Z,7.23
2019-03-09T07:55:17.463Z,7.30
2019-03-09T07:56:25.532Z,7.35
2019-03-09T07:57:33.727Z,7.35
2019-03-09T07:58:41.639Z,7.42
2019-03-09T07:59:49.692Z,7.37
2019-03-09T08:00:57.787Z,7.48
2019-03-09T08:02:05.813Z,7.48
2019-03-09T08:03:13.892Z,7.45
2019-03-09T08:04:22.418Z,7.55
2019-03-09T08:05:30.003Z,7.50
2019-03-09T08:06:38.072Z,7.61
2019-03-09T08:07:46.125Z,7.53
2019-03-09T08:08:54.179Z,7.61
2019-03-09T08:10:02.252Z,7.69
2019-03-09T08:11:10.297Z,7.60
2019-03-09T08:12:18.347Z,7.67
2019-03-09T08:13:26.921Z,7.64
2019-03-09T08:14:34.489Z,7.72
2019-03-09T08:15:42.540Z,7.72
2019-03-09T08:16:50.608Z,7.80
2019-03-09T08:17:58.649Z,7.82
2019-03-09T08:19:06.734Z,7.79
2019-03-09T08:20:14.804Z,7.74
2019-03-09T08:21:22.873Z,7.71
2019-03-09T08:22:30.905Z,7.71
2019-03-09T08:23:38.987Z,7.71
2019-03-09T08:24:47.057Z,7.74
2019-03-09T08:25:55.088Z,7.82
2019-03-09T08:27:03.154Z,7.71
2019-03-09T08:28:11.217Z,7.82
2019-03-09T08:29:19.331Z,7.86
2019-03-09T08:30:27.359Z,7.86
2019-03-09T08:31:35.403Z,7.87
2019-03-09T08:32:43.478Z,7.90
2019-03-09T08:33:51.535Z,7.97
2019-03-09T08:34:59.835Z,8.05
2019-03-09T08:36:07.653Z,8.04
2019-03-09T08:37:15.714Z,8.10
2019-03-09T08:38:23.964Z,8.04
2019-03-09T08:39:31.854Z,8.12
2019-03-09T08:40:39.897Z,8.18
2019-03-09T08:41:47.942Z,8.05
2019-03-09T08:42:56.032Z,8.07
2019-03-09T08:44:04.159Z,8.08
2019-03-09T08:45:12.130Z,8.10
2019-03-09T08:46:20.211Z,8.04
2019-03-09T08:47:28.281Z,8.05
2019-03-09T08:48:36.335Z,8.05
2019-03-09T08:49:44.394Z,8.02
2019-03-09T08:50:52.447Z,7.93
2019-03-09T08:52:00.514Z,8.07
2019-03-09T08:53:08.589Z,8.02
2019-03-09T08:54:16.630Z,8.00
2019-03-09T08:55:24.678Z,7.97
2019-03-09T08:56:33.578Z,7.89
2019-03-09T08:57:40.838Z,7.92
2019-03-09T08:58:48.895Z,7.89
2019-03-09T08:59:57.031Z,7.87
2019-03-09T09:01:04.993Z,7.87
2019-03-09T09:02:13.076Z,7.97
2019-03-09T09:03:21.125Z,7.95
2019-03-09T09:04:29.190Z,7.98
2019-03-09T09:05:39.498Z,7.90
2019-03-09T09:06:45.316Z,7.97
2019-03-09T09:07:53.362Z,8.02
2019-03-09T09:09:01.418Z,7.98
2019-03-09T09:10:09.466Z,7.98
2019-03-09T09:11:17.538Z,7.98
2019-03-09T09:12:25.613Z,8.01
2019-03-09T09:13:33.661Z,8.01
2019-03-09T09:14:41.723Z,8.02
2019-03-09T09:15:49.770Z,8.07
2019-03-09T09:16:57.846Z,8.01
2019-03-09T09:18:05.920Z,8.00
2019-03-09T09:19:13.978Z,8.00
2019-03-09T09:20:22.027Z,7.93
2019-03-09T09:21:30.112Z,7.98
2019-03-09T09:22:38.169Z,7.92
2019-03-09T09:23:46.232Z,7.92
2019-03-09T09:24:54.298Z,8.07
2019-03-09T09:26:02.363Z,8.10
2019-03-09T09:27:10.418Z,8.10
2019-03-09T09:28:18.451Z,8.15
